Mama, Russia
Current Conditions -  °F | °C
As of 5:00 AM on Wednesday 28 Jan 2015 (Local Time) from UIAA Reporting Station
Clear Clear  
Wind Chill: -24°   Ceiling: Unl
Heat Index: -24°   Visibility: 6mi
Dew Point: -29°   Wind: 0mph
Humidity: 76%   Direction: NA
Pressure: 30.21"   Gusts: NA
Location:  58.31°N, 112.9°E
Report Text: UIAA 272100Z 00000MPS 9999 SKC M31/M34 Q1023 NOSIG RMK QFE70929CLRD70
Loading
Personal Weather Stations






























Interactive Weather Map New forecast layout! Learn more

10-Day Weather Forecast

Advertisements
Track Severe Weather on mobile